createdAt,value
2023-03-28T00:00:02.788Z,1018.9
2023-03-28T00:15:03.218Z,1019.0
2023-03-28T00:30:02.733Z,1019.2
2023-03-28T00:45:03.104Z,1019.5
2023-03-28T01:00:02.743Z,1019.4
2023-03-28T01:15:02.985Z,1019.5
2023-03-28T01:30:02.425Z,1019.6
2023-03-28T01:45:02.859Z,1019.5
2023-03-28T02:00:02.271Z,1019.7
2023-03-28T02:15:02.740Z,1019.6
2023-03-28T02:30:02.144Z,1019.3
2023-03-28T02:45:02.762Z,1019.3
2023-03-28T03:00:03.069Z,1019.3
2023-03-28T03:15:02.493Z,1019.4
2023-03-28T03:30:02.923Z,1019.7
2023-03-28T03:45:02.316Z,1019.5
2023-03-28T04:00:02.780Z,1019.6
2023-03-28T04:15:03.233Z,1019.9
2023-03-28T04:30:02.782Z,1020.0
2023-03-28T04:45:03.101Z,1020.0
2023-03-28T05:00:02.688Z,1020.1
2023-03-28T05:15:02.992Z,1020.2
2023-03-28T05:30:02.377Z,1020.4
2023-03-28T05:45:02.858Z,1020.5
2023-03-28T06:00:02.284Z,1020.6
2023-03-28T06:15:02.787Z,1020.7
2023-03-28T06:30:02.166Z,1020.7
2023-03-28T06:45:02.793Z,1020.8
2023-03-28T07:00:03.073Z,1021.0
2023-03-28T07:15:02.518Z,1021.1
2023-03-28T07:30:02.950Z,1021.3
2023-03-28T07:45:02.394Z,1021.2
2023-03-28T08:00:02.845Z,1021.2
2023-03-28T08:15:02.294Z,1021.3
2023-03-28T08:30:02.821Z,1021.4
2023-03-28T08:45:02.258Z,1021.3
2023-03-28T09:00:02.830Z,1021.2
2023-03-28T09:15:03.049Z,1021.3
2023-03-28T09:30:02.457Z,1021.2
2023-03-28T09:45:02.905Z,1021.2
2023-03-28T10:00:02.318Z,1021.3
2023-03-28T10:15:02.857Z,1021.2
2023-03-28T10:30:02.202Z,1021.1
2023-03-28T10:45:02.867Z,1021.1
2023-03-28T11:00:02.087Z,1021.1
2023-03-28T11:15:02.543Z,1020.9
2023-03-28T11:30:02.972Z,1020.8
2023-03-28T11:45:02.407Z,1020.6
2023-03-28T12:00:02.858Z,1020.5
2023-03-28T12:15:02.280Z,1020.2
2023-03-28T12:30:02.872Z,1020.1
2023-03-28T12:45:02.162Z,1019.7
2023-03-28T13:00:02.632Z,1019.6
2023-03-28T13:15:03.031Z,1019.5
2023-03-28T13:30:02.480Z,1019.3
2023-03-28T13:45:02.893Z,1019.0
2023-03-28T14:00:02.349Z,1018.7
2023-03-28T14:15:02.915Z,1018.4
2023-03-28T14:30:02.184Z,1018.1
2023-03-28T14:45:02.843Z,1018.1
2023-03-28T15:00:02.146Z,1018.0
2023-03-28T15:15:02.528Z,1017.7
2023-03-28T15:30:02.978Z,1017.5
2023-03-28T15:45:02.406Z,1017.3
2023-03-28T16:00:02.905Z,1017.0
2023-03-28T16:15:02.303Z,1016.9
2023-03-28T16:30:02.909Z,1016.5
2023-03-28T16:45:02.156Z,1016.5
2023-03-28T17:00:02.609Z,1016.5
2023-03-28T17:15:03.087Z,1016.3
2023-03-28T17:30:02.476Z,1016.2
2023-03-28T17:45:02.937Z,1016.0
2023-03-28T18:00:02.343Z,1015.8
2023-03-28T18:15:02.928Z,1015.8
2023-03-28T18:30:02.245Z,1015.7
2023-03-28T18:45:02.654Z,1015.6
2023-03-28T19:00:03.150Z,1015.5
2023-03-28T19:15:02.538Z,1015.3
2023-03-28T19:30:02.975Z,1015.2
2023-03-28T19:45:02.417Z,1015.1
2023-03-28T20:00:02.962Z,1014.8
2023-03-28T20:15:02.281Z,1014.7
2023-03-28T20:30:02.950Z,1014.5
2023-03-28T20:45:02.158Z,1014.4
2023-03-28T21:00:02.593Z,1014.2
2023-03-28T21:15:03.067Z,1014.0
2023-03-28T21:30:02.488Z,1014.0
2023-03-28T21:45:02.953Z,1014.1
2023-03-28T22:00:02.333Z,1014.2
2023-03-28T22:15:02.969Z,1014.1
2023-03-28T22:30:02.219Z,1014.2
2023-03-28T22:45:02.666Z,1014.2
2023-03-28T23:00:03.111Z,1014.0
2023-03-28T23:15:02.524Z,1013.9
2023-03-28T23:30:02.983Z,1013.7
2023-03-28T23:45:02.385Z,1013.6
